createdAt,value
2018-01-08T00:02:07.935Z,66.47
2018-01-08T00:04:35.634Z,35.00
2018-01-08T00:07:03.349Z,57.90
2018-01-08T00:09:31.042Z,44.13
2018-01-08T00:11:58.799Z,59.07
2018-01-08T00:14:26.500Z,33.77
2018-01-08T00:16:54.286Z,108.60
2018-01-08T00:19:21.957Z,71.43
2018-01-08T00:21:49.690Z,37.43
2018-01-08T00:24:17.456Z,34.63
2018-01-08T00:26:45.167Z,108.90
2018-01-08T00:29:12.902Z,38.13
2018-01-08T00:31:40.580Z,44.27
2018-01-08T00:34:08.281Z,77.40
2018-01-08T00:36:36.007Z,93.13
2018-01-08T00:39:03.830Z,43.07
2018-01-08T00:41:31.573Z,52.10
2018-01-08T00:43:59.365Z,51.07
2018-01-08T00:46:27.102Z,45.03
2018-01-08T00:48:54.818Z,37.33
2018-01-08T00:51:22.564Z,59.17
2018-01-08T00:53:50.279Z,31.03
2018-01-08T00:56:18.052Z,23.20
2018-01-08T00:58:45.794Z,78.00
2018-01-08T01:01:13.490Z,22.97
2018-01-08T01:03:41.214Z,29.07
2018-01-08T01:06:09.022Z,39.67
2018-01-08T01:08:36.759Z,72.17
2018-01-08T01:11:04.447Z,48.17
2018-01-08T01:13:32.181Z,46.80
2018-01-08T01:15:59.873Z,32.87
2018-01-08T01:18:28.866Z,30.97
2018-01-08T01:20:56.560Z,32.57
2018-01-08T01:23:24.306Z,27.07
2018-01-08T01:25:52.024Z,30.27
2018-01-08T01:28:19.854Z,36.80
2018-01-08T01:30:47.565Z,37.13
2018-01-08T01:33:15.268Z,32.23
2018-01-08T01:35:43.013Z,24.00
2018-01-08T01:38:10.707Z,31.40
2018-01-08T01:40:38.539Z,25.10
2018-01-08T01:43:06.272Z,27.07
2018-01-08T01:45:33.946Z,23.17
2018-01-08T01:48:01.671Z,49.23
2018-01-08T01:50:29.371Z,29.07
2018-01-08T01:52:57.052Z,25.10
2018-01-08T01:55:24.784Z,22.83
2018-01-08T01:57:52.514Z,23.10
2018-01-08T02:00:20.279Z,26.83
2018-01-08T02:02:48.016Z,24.40
2018-01-08T02:05:15.798Z,20.87
2018-01-08T02:07:43.459Z,21.67
2018-01-08T02:10:12.202Z,22.50
2018-01-08T02:12:39.891Z,24.87
2018-01-08T02:15:07.849Z,28.80
2018-01-08T02:17:35.679Z,26.23
2018-01-08T02:20:03.381Z,24.30
2018-01-08T02:22:31.147Z,23.33
2018-01-08T02:24:58.888Z,23.83
2018-01-08T02:27:26.612Z,23.73
2018-01-08T02:29:54.352Z,21.20
2018-01-08T02:32:22.112Z,21.87
2018-01-08T02:34:49.806Z,23.57
2018-01-08T02:37:17.574Z,23.83
2018-01-08T02:39:45.323Z,20.73
2018-01-08T02:42:13.068Z,20.77
2018-01-08T02:44:40.833Z,21.50
2018-01-08T02:47:08.622Z,20.73
2018-01-08T02:49:36.335Z,26.27
2018-01-08T02:52:04.023Z,33.10
2018-01-08T02:54:31.755Z,24.53
2018-01-08T02:56:59.484Z,21.70
2018-01-08T02:59:27.163Z,22.83
2018-01-08T03:01:54.857Z,20.63
2018-01-08T03:04:22.600Z,22.37
2018-01-08T03:06:50.341Z,25.63
2018-01-08T03:09:18.086Z,21.13
2018-01-08T03:11:45.768Z,20.07
2018-01-08T03:14:13.508Z,22.07
2018-01-08T03:16:41.212Z,25.13
2018-01-08T03:19:09.002Z,22.87
2018-01-08T03:21:36.775Z,22.67
2018-01-08T03:24:04.460Z,23.47
2018-01-08T03:26:32.151Z,24.57
2018-01-08T03:28:59.901Z,21.97
2018-01-08T03:31:27.929Z,20.80
2018-01-08T03:33:55.683Z,25.70
2018-01-08T03:36:23.376Z,23.47
2018-01-08T03:38:51.090Z,23.10
2018-01-08T03:41:18.844Z,26.50
2018-01-08T03:43:46.545Z,22.07
2018-01-08T03:46:14.285Z,18.63
2018-01-08T03:48:42.012Z,23.77
2018-01-08T03:51:09.748Z,25.60
2018-01-08T03:53:37.455Z,20.90
2018-01-08T03:56:06.147Z,22.80
2018-01-08T03:58:33.828Z,25.93
2018-01-08T04:01:01.527Z,23.70
2018-01-08T04:03:29.233Z,21.80
2018-01-08T04:05:56.979Z,24.30
2018-01-08T04:08:24.685Z,24.87
2018-01-08T04:10:52.367Z,22.83
2018-01-08T04:13:20.086Z,28.20
2018-01-08T04:15:47.812Z,24.43
2018-01-08T04:18:15.611Z,26.27
2018-01-08T04:20:43.352Z,30.07
2018-01-08T04:23:11.078Z,29.33
2018-01-08T04:25:38.800Z,26.70
2018-01-08T04:28:06.502Z,25.83
2018-01-08T04:30:34.238Z,28.53
2018-01-08T04:33:01.941Z,24.17
2018-01-08T04:35:29.709Z,25.17
2018-01-08T04:37:57.404Z,25.27
2018-01-08T04:40:25.181Z,27.43
2018-01-08T04:42:52.872Z,27.63
2018-01-08T04:45:20.610Z,23.57
2018-01-08T04:47:48.324Z,25.10
2018-01-08T04:50:16.083Z,22.53
2018-01-08T04:52:43.813Z,24.50
2018-01-08T04:55:11.590Z,23.27
2018-01-08T04:57:39.360Z,33.13
2018-01-08T05:00:07.109Z,22.17
2018-01-08T05:02:34.898Z,28.47
2018-01-08T05:05:02.640Z,28.17
2018-01-08T05:07:30.368Z,25.83
2018-01-08T05:09:58.106Z,34.07
2018-01-08T05:12:25.949Z,26.43
2018-01-08T05:14:53.646Z,25.87
2018-01-08T05:17:21.379Z,19.53
2018-01-08T05:19:49.123Z,40.57
2018-01-08T05:22:16.827Z,38.30
2018-01-08T05:24:44.546Z,23.90
2018-01-08T05:27:12.235Z,24.00
2018-01-08T05:29:39.962Z,29.13
2018-01-08T05:32:07.656Z,26.03
2018-01-08T05:34:35.404Z,29.53
2018-01-08T05:37:03.337Z,25.30
2018-01-08T05:39:31.118Z,23.23
2018-01-08T05:41:58.818Z,24.50
2018-01-08T05:44:26.571Z,26.10
2018-01-08T05:46:54.240Z,26.00
2018-01-08T05:49:22.026Z,21.93
2018-01-08T05:51:49.695Z,29.30
2018-01-08T05:54:17.446Z,24.87
2018-01-08T05:56:45.179Z,28.60
2018-01-08T05:59:12.884Z,25.67
2018-01-08T06:01:40.670Z,25.33
2018-01-08T06:04:09.135Z,35.53
2018-01-08T06:06:36.843Z,26.07
2018-01-08T06:09:04.600Z,25.80
2018-01-08T06:11:32.407Z,32.77
2018-01-08T06:14:00.124Z,28.50
2018-01-08T06:16:27.832Z,26.47
2018-01-08T06:18:55.612Z,32.90
2018-01-08T06:21:23.355Z,30.20
2018-01-08T06:23:51.152Z,31.87
2018-01-08T06:26:18.841Z,30.90
2018-01-08T06:28:46.602Z,31.67
2018-01-08T06:31:14.341Z,29.13
2018-01-08T06:33:42.089Z,36.10
2018-01-08T06:36:09.865Z,31.67
2018-01-08T06:38:37.560Z,27.93
2018-01-08T06:41:05.726Z,24.80
2018-01-08T06:43:33.496Z,31.90
2018-01-08T06:46:01.725Z,25.27
2018-01-08T06:48:29.504Z,21.63
2018-01-08T06:50:57.393Z,19.60
2018-01-08T06:53:25.086Z,26.70
2018-01-08T06:55:52.806Z,27.87
2018-01-08T06:58:20.534Z,27.20
2018-01-08T07:00:48.318Z,23.60
2018-01-08T07:03:16.098Z,22.73
2018-01-08T07:05:43.831Z,20.50
2018-01-08T07:08:11.627Z,23.53
2018-01-08T07:10:39.345Z,23.90
2018-01-08T07:13:07.086Z,25.30
2018-01-08T07:15:34.863Z,27.40
2018-01-08T07:18:02.598Z,37.97
2018-01-08T07:20:30.324Z,28.60
2018-01-08T07:22:58.077Z,32.40
2018-01-08T07:25:25.777Z,24.13
2018-01-08T07:27:53.463Z,24.03
2018-01-08T07:30:21.176Z,40.70
2018-01-08T07:32:48.972Z,36.70
2018-01-08T07:35:16.768Z,36.93
2018-01-08T07:37:44.460Z,24.53
2018-01-08T07:40:12.180Z,28.40
2018-01-08T07:42:39.919Z,35.83
2018-01-08T07:45:07.688Z,29.53
2018-01-08T07:47:35.510Z,35.43
2018-01-08T07:50:03.296Z,31.43
2018-01-08T07:52:31.121Z,36.50
2018-01-08T07:54:58.829Z,31.30
2018-01-08T07:57:26.541Z,29.03
2018-01-08T07:59:54.335Z,32.27
2018-01-08T08:02:22.028Z,34.87
2018-01-08T08:04:49.741Z,26.97
2018-01-08T08:07:17.493Z,40.63
2018-01-08T08:09:45.189Z,28.20
2018-01-08T08:12:12.952Z,30.60
2018-01-08T08:14:40.705Z,28.43
2018-01-08T08:17:08.424Z,24.13
2018-01-08T08:19:36.194Z,30.73
2018-01-08T08:22:03.926Z,37.57
2018-01-08T08:24:31.800Z,27.93
2018-01-08T08:26:59.529Z,33.37
2018-01-08T08:29:27.320Z,26.77
2018-01-08T08:31:55.159Z,22.57
2018-01-08T08:34:22.865Z,34.07
2018-01-08T08:36:50.616Z,34.37
2018-01-08T08:39:18.348Z,31.67
2018-01-08T08:41:46.039Z,39.37
2018-01-08T08:44:13.777Z,29.23
2018-01-08T08:46:41.502Z,31.03
2018-01-08T08:49:09.265Z,34.73
2018-01-08T08:51:37.076Z,29.70
2018-01-08T08:54:04.826Z,31.70
2018-01-08T08:56:32.566Z,36.00
2018-01-08T08:59:00.276Z,24.80
2018-01-08T09:01:27.975Z,21.03
2018-01-08T09:03:56.020Z,22.20
2018-01-08T09:06:23.724Z,24.03
2018-01-08T09:08:51.588Z,24.30
2018-01-08T09:11:19.340Z,31.93
2018-01-08T09:13:47.047Z,35.50
2018-01-08T09:16:14.841Z,43.67
2018-01-08T09:18:42.528Z,41.77
2018-01-08T09:21:10.299Z,54.73
2018-01-08T09:23:38.493Z,42.13
2018-01-08T09:26:06.250Z,66.27
2018-01-08T09:28:34.004Z,46.87
2018-01-08T09:31:01.777Z,58.97
2018-01-08T09:33:30.433Z,50.33
2018-01-08T09:35:58.186Z,51.77
2018-01-08T09:38:26.136Z,47.47
2018-01-08T09:40:53.924Z,36.77
2018-01-08T09:43:21.629Z,46.73
2018-01-08T09:45:49.539Z,51.10
2018-01-08T09:48:17.765Z,50.97
2018-01-08T09:50:45.578Z,51.60
2018-01-08T09:53:13.402Z,40.60
2018-01-08T09:55:41.271Z,46.27
2018-01-08T09:58:09.001Z,33.47
2018-01-08T10:00:38.031Z,34.83
2018-01-08T10:03:17.397Z,32.90
2018-01-08T10:05:57.008Z,29.50
2018-01-08T10:08:36.295Z,40.80
2018-01-08T10:11:15.790Z,34.23
2018-01-08T10:13:55.164Z,28.73
2018-01-08T10:16:34.768Z,34.83
2018-01-08T10:19:14.288Z,72.07
2018-01-08T10:21:42.131Z,49.17
2018-01-08T10:24:09.915Z,54.20
2018-01-08T10:26:37.933Z,28.87
2018-01-08T10:29:05.761Z,30.53
2018-01-08T10:31:33.518Z,25.33
2018-01-08T10:34:01.275Z,24.57
2018-01-08T10:36:29.054Z,29.73
2018-01-08T10:38:56.932Z,29.00
2018-01-08T10:41:30.262Z,27.50
2018-01-08T10:44:03.402Z,27.93
2018-01-08T10:46:37.687Z,29.80
2018-01-08T10:49:11.110Z,36.70
2018-01-08T10:51:41.382Z,36.73
2018-01-08T10:54:09.183Z,35.67
2018-01-08T10:56:36.949Z,37.43
2018-01-08T10:59:04.664Z,25.90
2018-01-08T11:01:37.964Z,30.97
2018-01-08T11:04:05.668Z,31.57
2018-01-08T11:06:33.433Z,32.80
2018-01-08T11:09:01.226Z,36.17
2018-01-08T11:11:29.021Z,38.47
2018-01-08T11:13:56.869Z,27.73
2018-01-08T11:16:24.637Z,28.53
2018-01-08T11:18:52.424Z,29.80
2018-01-08T11:21:20.213Z,29.30
2018-01-08T11:23:47.965Z,36.53
2018-01-08T11:26:15.795Z,32.83
2018-01-08T11:28:43.551Z,39.23
2018-01-08T11:31:11.260Z,43.57
2018-01-08T11:33:39.040Z,41.30
2018-01-08T11:36:07.062Z,40.70
2018-01-08T11:38:34.856Z,43.20
2018-01-08T11:41:02.664Z,49.77
2018-01-08T11:43:30.507Z,42.00
2018-01-08T11:45:58.341Z,45.03
2018-01-08T11:48:26.138Z,36.13
2018-01-08T11:50:53.978Z,30.43
2018-01-08T11:53:22.358Z,41.80
2018-01-08T11:55:50.122Z,40.33
2018-01-08T11:58:17.963Z,39.47
2018-01-08T12:00:45.796Z,35.07
2018-01-08T12:03:13.618Z,37.77
2018-01-08T12:05:41.425Z,58.33
2018-01-08T12:08:09.392Z,59.23
2018-01-08T12:10:37.230Z,53.47
2018-01-08T12:13:04.991Z,55.40
2018-01-08T12:15:32.841Z,62.13
2018-01-08T12:18:00.593Z,54.80
2018-01-08T12:20:28.394Z,42.20
2018-01-08T12:22:56.157Z,64.00
2018-01-08T12:25:23.927Z,65.47
2018-01-08T12:27:51.656Z,47.93
2018-01-08T12:30:19.424Z,51.60
2018-01-08T12:32:47.244Z,52.07
2018-01-08T12:35:15.024Z,48.17
2018-01-08T12:37:42.788Z,65.50
2018-01-08T12:40:11.368Z,55.93
2018-01-08T12:42:39.085Z,51.93
2018-01-08T12:45:06.827Z,44.93
2018-01-08T12:47:34.565Z,53.57
2018-01-08T12:50:02.320Z,57.17
2018-01-08T12:52:30.043Z,41.47
2018-01-08T12:54:57.766Z,40.63
2018-01-08T12:57:25.663Z,40.83
2018-01-08T12:59:53.364Z,48.07
2018-01-08T13:02:21.190Z,47.93
2018-01-08T13:04:49.015Z,43.33
2018-01-08T13:07:17.036Z,51.20
2018-01-08T13:09:44.828Z,53.60
2018-01-08T13:12:12.531Z,40.67
2018-01-08T13:14:40.335Z,46.30
2018-01-08T13:17:08.257Z,52.43
2018-01-08T13:19:36.148Z,48.53
2018-01-08T13:22:03.899Z,51.77
2018-01-08T13:24:31.879Z,47.80
2018-01-08T13:26:59.634Z,48.80
2018-01-08T13:29:27.468Z,56.33
2018-01-08T13:31:55.241Z,63.17
2018-01-08T13:34:23.089Z,50.60
2018-01-08T13:36:50.846Z,51.00
2018-01-08T13:39:18.682Z,57.43
2018-01-08T13:41:46.552Z,65.63
2018-01-08T13:44:14.292Z,66.80
2018-01-08T13:46:42.976Z,53.13
2018-01-08T13:49:10.726Z,59.70
2018-01-08T13:51:38.567Z,90.20
2018-01-08T13:54:06.277Z,55.47
2018-01-08T13:56:34.132Z,62.60
2018-01-08T13:59:01.918Z,70.00
2018-01-08T14:01:29.792Z,78.00
2018-01-08T14:03:57.630Z,61.30
2018-01-08T14:06:25.491Z,69.90
2018-01-08T14:08:53.300Z,56.47
2018-01-08T14:11:21.145Z,49.73
2018-01-08T14:13:48.904Z,59.00
2018-01-08T14:16:16.725Z,45.40
2018-01-08T14:18:44.446Z,55.40
2018-01-08T14:21:12.138Z,50.70
2018-01-08T14:23:39.925Z,56.80
2018-01-08T14:26:07.726Z,63.83
2018-01-08T14:28:35.557Z,55.37
2018-01-08T14:31:03.378Z,58.40
2018-01-08T14:33:31.127Z,50.27
2018-01-08T14:35:58.906Z,80.80
2018-01-08T14:38:27.804Z,68.30
2018-01-08T14:40:55.577Z,103.47
2018-01-08T14:43:23.807Z,84.80
2018-01-08T14:45:51.732Z,81.80
2018-01-08T14:48:20.700Z,108.20
2018-01-08T14:50:48.568Z,83.63
2018-01-08T14:53:16.839Z,87.20
2018-01-08T14:55:44.575Z,107.50
2018-01-08T14:58:12.356Z,89.17
2018-01-08T15:00:40.097Z,112.93
2018-01-08T15:03:07.884Z,88.07
2018-01-08T15:05:35.614Z,83.80
2018-01-08T15:08:03.380Z,370.30
2018-01-08T15:10:31.315Z,132.20
2018-01-08T15:12:59.186Z,118.70
2018-01-08T15:15:27.236Z,126.80
2018-01-08T15:17:54.993Z,98.73
2018-01-08T15:20:22.900Z,115.33
2018-01-08T15:22:50.610Z,92.93
2018-01-08T15:25:19.178Z,84.10
2018-01-08T15:27:47.988Z,61.77
2018-01-08T15:30:15.809Z,70.63
2018-01-08T15:32:44.197Z,115.80
2018-01-08T15:35:12.833Z,275.43
2018-01-08T15:37:40.595Z,241.03
2018-01-08T15:40:08.438Z,121.53
2018-01-08T15:42:36.278Z,104.13
2018-01-08T15:45:04.225Z,76.90
2018-01-08T15:47:32.075Z,144.13
2018-01-08T15:49:59.824Z,90.30
2018-01-08T15:52:28.817Z,136.33
2018-01-08T15:54:56.653Z,119.90
2018-01-08T15:57:24.428Z,199.60
2018-01-08T15:59:52.129Z,209.97
2018-01-08T16:02:19.952Z,169.17
2018-01-08T16:04:47.771Z,129.50
2018-01-08T16:07:15.667Z,231.37
2018-01-08T16:09:43.580Z,200.23
2018-01-08T16:12:11.402Z,93.60
2018-01-08T16:14:39.270Z,128.97
2018-01-08T16:17:07.032Z,86.80
2018-01-08T16:19:34.878Z,174.97
2018-01-08T16:22:02.645Z,180.57
2018-01-08T16:24:32.638Z,107.83
2018-01-08T16:27:01.127Z,63.83
2018-01-08T16:29:28.865Z,90.00
2018-01-08T16:31:56.641Z,70.57
2018-01-08T16:34:24.411Z,45.93
2018-01-08T16:36:53.165Z,68.10
2018-01-08T16:39:21.092Z,54.83
2018-01-08T16:41:49.700Z,53.83
2018-01-08T16:44:17.586Z,49.90
2018-01-08T16:46:45.416Z,93.67
2018-01-08T16:49:13.156Z,57.30
2018-01-08T16:51:41.019Z,55.27
2018-01-08T16:54:09.236Z,88.83
2018-01-08T16:56:37.106Z,146.20
2018-01-08T16:59:05.727Z,84.67
2018-01-08T17:01:33.823Z,100.20
2018-01-08T17:04:01.944Z,88.20
2018-01-08T17:06:29.748Z,181.00
2018-01-08T17:08:57.570Z,57.53
2018-01-08T17:11:25.331Z,99.03
2018-01-08T17:13:53.047Z,75.67
2018-01-08T17:16:20.836Z,71.63
2018-01-08T17:18:48.681Z,61.53
2018-01-08T17:21:17.705Z,87.83
2018-01-08T17:23:45.471Z,185.63
2018-01-08T17:26:13.514Z,112.83
2018-01-08T17:28:41.411Z,357.13
2018-01-08T17:31:09.260Z,111.90
2018-01-08T17:33:38.508Z,83.10
2018-01-08T17:36:06.976Z,138.20
2018-01-08T17:38:34.786Z,118.30
2018-01-08T17:41:02.615Z,195.77
2018-01-08T17:43:30.359Z,130.33
2018-01-08T17:45:58.299Z,135.80
2018-01-08T17:48:26.112Z,129.57
2018-01-08T17:50:53.878Z,155.60
2018-01-08T17:53:21.804Z,172.60
2018-01-08T17:55:49.645Z,147.90
2018-01-08T17:58:17.464Z,125.87
2018-01-08T18:00:45.265Z,209.57
2018-01-08T18:03:13.075Z,236.93
2018-01-08T18:05:40.908Z,387.80
2018-01-08T18:08:09.824Z,283.87
2018-01-08T18:10:37.934Z,195.90
2018-01-08T18:13:05.864Z,176.00
2018-01-08T18:15:33.654Z,338.70
2018-01-08T18:18:01.604Z,165.50
2018-01-08T18:20:29.422Z,175.80
2018-01-08T18:22:57.327Z,55.80
2018-01-08T18:25:25.071Z,217.33
2018-01-08T18:27:52.869Z,340.37
2018-01-08T18:30:20.724Z,291.33
2018-01-08T18:32:48.592Z,155.17
2018-01-08T18:35:16.426Z,238.63
2018-01-08T18:37:44.350Z,29.13
2018-01-08T18:40:12.093Z,259.43
2018-01-08T18:42:40.090Z,98.50
2018-01-08T18:45:08.168Z,143.80
2018-01-08T18:47:36.224Z,166.43
2018-01-08T18:50:04.186Z,220.30
2018-01-08T18:52:32.038Z,174.73
2018-01-08T18:55:00.058Z,134.70
2018-01-08T18:57:28.299Z,162.43
2018-01-08T18:59:56.430Z,157.67
2018-01-08T19:02:24.940Z,181.43
2018-01-08T19:04:53.387Z,221.63
2018-01-08T19:07:21.403Z,137.57
2018-01-08T19:09:49.754Z,151.20
2018-01-08T19:12:19.817Z,185.47
2018-01-08T19:14:48.539Z,110.70
2018-01-08T19:17:20.225Z,110.53
2018-01-08T19:19:48.356Z,87.57
2018-01-08T19:22:16.402Z,136.20
2018-01-08T19:24:45.780Z,251.83
2018-01-08T19:27:13.596Z,155.43
2018-01-08T19:29:41.743Z,226.57
2018-01-08T19:32:11.803Z,187.93
2018-01-08T19:34:41.357Z,113.40
2018-01-08T19:37:09.304Z,266.93
2018-01-08T19:39:37.091Z,299.03
2018-01-08T19:42:05.213Z,120.87
2018-01-08T19:44:33.296Z,156.87
2018-01-08T19:47:01.099Z,158.63
2018-01-08T19:49:28.899Z,42.93
2018-01-08T19:51:56.686Z,177.87
2018-01-08T19:54:24.442Z,71.07
2018-01-08T19:56:52.249Z,20.97
2018-01-08T19:59:20.018Z,74.93
2018-01-08T20:01:47.822Z,50.03
2018-01-08T20:04:17.021Z,49.50
2018-01-08T20:06:45.088Z,80.27
2018-01-08T20:09:14.978Z,32.50
2018-01-08T20:11:42.995Z,23.30
2018-01-08T20:14:11.346Z,75.77
2018-01-08T20:16:39.236Z,33.33
2018-01-08T20:19:07.024Z,68.53
2018-01-08T20:21:35.016Z,101.00
2018-01-08T20:24:02.762Z,60.63
2018-01-08T20:26:30.607Z,124.30
2018-01-08T20:28:58.380Z,129.70
2018-01-08T20:31:26.494Z,94.90
2018-01-08T20:33:54.526Z,109.00
2018-01-08T20:36:25.187Z,64.77
2018-01-08T20:38:52.910Z,48.73
2018-01-08T20:41:20.819Z,89.17
2018-01-08T20:43:48.891Z,92.73
2018-01-08T20:46:16.783Z,24.07
2018-01-08T20:48:44.877Z,30.07
2018-01-08T20:51:12.712Z,44.67
2018-01-08T20:53:43.497Z,22.70
2018-01-08T20:56:11.286Z,189.37
2018-01-08T20:58:39.011Z,46.97
2018-01-08T21:01:06.854Z,43.87
2018-01-08T21:03:35.886Z,130.87
2018-01-08T21:06:04.069Z,46.00
2018-01-08T21:08:32.222Z,24.20
2018-01-08T21:11:01.034Z,21.13
2018-01-08T21:13:29.675Z,78.93
2018-01-08T21:15:59.562Z,46.20
2018-01-08T21:18:27.397Z,39.67
2018-01-08T21:20:55.198Z,28.43
2018-01-08T21:23:23.043Z,65.03
2018-01-08T21:25:50.840Z,21.83
2018-01-08T21:28:19.203Z,37.33
2018-01-08T21:30:47.270Z,81.03
2018-01-08T21:33:15.150Z,27.63
2018-01-08T21:35:43.680Z,38.80
2018-01-08T21:38:11.559Z,51.93
2018-01-08T21:40:39.883Z,30.43
2018-01-08T21:43:07.798Z,88.10
2018-01-08T21:45:35.515Z,60.07
2018-01-08T21:48:03.318Z,100.63
2018-01-08T21:50:31.297Z,58.07
2018-01-08T21:53:02.087Z,113.13
2018-01-08T21:55:29.887Z,63.90
2018-01-08T21:57:58.867Z,62.80
2018-01-08T22:00:26.828Z,20.03
2018-01-08T22:02:57.724Z,19.53
2018-01-08T22:05:25.612Z,42.60
2018-01-08T22:07:53.545Z,41.30
2018-01-08T22:10:21.273Z,28.90
2018-01-08T22:12:49.632Z,125.97
2018-01-08T22:15:17.481Z,37.87
2018-01-08T22:17:46.896Z,320.53
2018-01-08T22:20:15.465Z,84.90
2018-01-08T22:22:43.275Z,42.83
2018-01-08T22:25:11.109Z,95.50
2018-01-08T22:27:39.705Z,209.50
2018-01-08T22:30:08.075Z,287.03
2018-01-08T22:32:36.549Z,71.67
2018-01-08T22:35:04.265Z,260.83
2018-01-08T22:37:32.068Z,151.93
2018-01-08T22:39:59.964Z,68.53
2018-01-08T22:42:27.669Z,196.47
2018-01-08T22:44:55.486Z,78.20
2018-01-08T22:47:23.780Z,64.23
2018-01-08T22:49:51.556Z,140.13
2018-01-08T22:52:19.351Z,37.47
2018-01-08T22:54:47.101Z,140.27
2018-01-08T22:57:14.947Z,59.73
2018-01-08T22:59:42.714Z,86.13
2018-01-08T23:02:10.536Z,63.50
2018-01-08T23:04:38.426Z,105.43
2018-01-08T23:07:06.894Z,90.03
2018-01-08T23:09:34.761Z,115.30
2018-01-08T23:12:02.570Z,66.60
2018-01-08T23:14:30.387Z,74.07
2018-01-08T23:16:58.211Z,86.60
2018-01-08T23:19:25.966Z,78.47
2018-01-08T23:21:53.727Z,117.17
2018-01-08T23:24:21.488Z,60.73
2018-01-08T23:26:49.264Z,26.23
2018-01-08T23:29:17.124Z,124.27
2018-01-08T23:31:45.362Z,27.40
2018-01-08T23:34:13.164Z,36.77
2018-01-08T23:36:41.001Z,34.93
2018-01-08T23:39:08.801Z,25.33
2018-01-08T23:41:36.692Z,33.23
2018-01-08T23:44:04.429Z,23.07
2018-01-08T23:46:32.217Z,23.70
2018-01-08T23:49:00.070Z,18.60
2018-01-08T23:51:27.934Z,38.60
2018-01-08T23:53:55.640Z,35.93
2018-01-08T23:56:23.388Z,16.50
2018-01-08T23:58:51.166Z,42.40
